createdAt,value
2019-01-03T00:01:50.497Z,21.47
2019-01-03T00:04:23.994Z,20.27
2019-01-03T00:06:56.998Z,22.37
2019-01-03T00:09:30.014Z,22.57
2019-01-03T00:12:02.776Z,22.30
2019-01-03T00:14:35.966Z,23.27
2019-01-03T00:17:08.993Z,23.07
2019-01-03T00:19:42.045Z,21.53
2019-01-03T00:22:14.894Z,22.53
2019-01-03T00:24:48.202Z,22.57
2019-01-03T00:27:21.215Z,22.90
2019-01-03T00:29:54.202Z,24.07
2019-01-03T00:32:27.219Z,24.50
2019-01-03T00:35:02.980Z,23.63
2019-01-03T00:37:35.846Z,24.50
2019-01-03T00:40:10.647Z,24.60
2019-01-03T00:42:43.735Z,24.37
2019-01-03T00:45:16.849Z,25.47
2019-01-03T00:47:49.928Z,25.65
2019-01-03T00:50:22.957Z,25.12
2019-01-03T00:52:56.148Z,26.48
2019-01-03T00:55:29.385Z,26.13
2019-01-03T00:58:02.781Z,26.50
2019-01-03T01:00:35.655Z,26.10
2019-01-03T01:03:08.859Z,27.13
2019-01-03T01:05:41.862Z,26.83
2019-01-03T01:08:14.678Z,26.60
2019-01-03T01:10:47.781Z,27.40
2019-01-03T01:13:30.907Z,27.43
2019-01-03T01:16:03.957Z,30.03
2019-01-03T01:18:36.951Z,28.17
2019-01-03T01:21:10.305Z,29.13
2019-01-03T01:23:43.314Z,27.70
2019-01-03T01:26:16.700Z,28.80
2019-01-03T01:28:49.644Z,29.53
2019-01-03T01:31:22.711Z,29.77
2019-01-03T01:33:56.519Z,30.48
2019-01-03T01:36:30.395Z,31.23
2019-01-03T01:39:06.745Z,30.37
2019-01-03T01:41:39.531Z,30.50
2019-01-03T01:44:12.689Z,29.93
2019-01-03T01:46:45.626Z,29.43
2019-01-03T01:49:18.925Z,30.33
2019-01-03T01:51:51.979Z,30.73
2019-01-03T01:54:25.579Z,30.50
2019-01-03T01:56:58.551Z,31.60
2019-01-03T01:59:31.567Z,30.15
2019-01-03T02:02:05.798Z,29.93
2019-01-03T02:04:39.031Z,30.45
2019-01-03T02:07:12.493Z,29.72
2019-01-03T02:09:45.592Z,30.37
2019-01-03T02:12:18.520Z,30.82
2019-01-03T02:14:51.489Z,29.87
2019-01-03T02:17:24.924Z,30.97
2019-01-03T02:19:58.109Z,31.83
2019-01-03T02:22:31.251Z,30.10
2019-01-03T02:25:04.755Z,29.35
2019-01-03T02:27:38.338Z,32.70
2019-01-03T02:30:11.624Z,31.60
2019-01-03T02:32:44.517Z,31.60
2019-01-03T02:35:17.580Z,32.58
2019-01-03T02:37:50.795Z,32.70
2019-01-03T02:40:23.772Z,31.83
2019-01-03T02:42:57.294Z,32.00
2019-01-03T02:45:30.371Z,31.80
2019-01-03T02:48:03.591Z,30.82
2019-01-03T02:50:57.395Z,32.70
2019-01-03T02:53:30.479Z,32.67
2019-01-03T02:56:03.361Z,31.60
2019-01-03T02:58:48.530Z,33.63
2019-01-03T03:01:22.598Z,32.58
2019-01-03T03:03:55.721Z,32.08
2019-01-03T03:06:28.826Z,31.53
2019-01-03T03:09:01.878Z,31.47
2019-01-03T03:11:34.719Z,32.27
2019-01-03T03:14:07.778Z,31.40
2019-01-03T03:16:40.576Z,32.13
2019-01-03T03:19:13.468Z,31.00
2019-01-03T03:21:46.596Z,32.60
2019-01-03T03:24:19.765Z,32.37
2019-01-03T03:26:52.804Z,31.43
2019-01-03T03:29:35.873Z,32.30
2019-01-03T03:32:20.453Z,30.67
2019-01-03T03:34:53.655Z,31.70
2019-01-03T03:37:26.480Z,32.33
2019-01-03T03:40:00.126Z,32.77
2019-01-03T03:42:33.357Z,30.50
2019-01-03T03:45:06.544Z,30.33
2019-01-03T03:47:39.670Z,29.87
2019-01-03T03:50:12.475Z,30.70
2019-01-03T03:52:46.015Z,31.12
2019-01-03T03:55:19.238Z,29.35
2019-01-03T03:57:52.226Z,27.77
2019-01-03T04:00:25.759Z,23.30
2019-01-03T04:02:59.021Z,21.27
2019-01-03T04:05:32.124Z,11.23
2019-01-03T04:08:05.130Z,10.93
2019-01-03T04:10:38.043Z,10.37
2019-01-03T04:13:11.018Z,8.40
2019-01-03T04:15:44.007Z,9.30
2019-01-03T04:18:17.659Z,9.23
2019-01-03T04:20:50.810Z,9.80
2019-01-03T04:23:23.875Z,10.03
2019-01-03T04:25:56.879Z,9.77
2019-01-03T04:28:30.193Z,10.03
2019-01-03T04:31:03.335Z,9.87
2019-01-03T04:33:36.232Z,9.80
2019-01-03T04:36:09.184Z,9.20
2019-01-03T04:38:42.295Z,9.37
2019-01-03T04:41:15.318Z,9.17
2019-01-03T04:43:48.416Z,9.10
2019-01-03T04:46:21.916Z,8.90
2019-01-03T04:48:55.077Z,9.40
2019-01-03T04:51:28.525Z,8.33
2019-01-03T04:54:01.947Z,8.43
2019-01-03T04:56:36.843Z,8.07
2019-01-03T04:59:10.129Z,8.30
2019-01-03T05:01:52.448Z,8.97
2019-01-03T05:04:31.123Z,8.97
2019-01-03T05:07:13.595Z,9.13
2019-01-03T05:10:00.899Z,9.33
2019-01-03T05:12:34.157Z,10.50
2019-01-03T05:15:10.635Z,11.40
2019-01-03T05:17:47.972Z,11.00
2019-01-03T05:20:21.197Z,11.53
2019-01-03T05:22:54.321Z,13.07
2019-01-03T05:25:27.517Z,11.53
2019-01-03T05:28:00.627Z,10.80
2019-01-03T05:30:33.709Z,10.97
2019-01-03T05:33:06.776Z,10.33
2019-01-03T05:35:39.885Z,10.67
2019-01-03T05:38:12.892Z,11.07
2019-01-03T05:40:46.903Z,12.40
2019-01-03T05:43:20.092Z,11.13
2019-01-03T05:45:53.057Z,11.80
2019-01-03T05:48:26.158Z,10.43
2019-01-03T05:50:59.622Z,10.67
2019-01-03T05:53:37.919Z,11.80
2019-01-03T05:56:13.822Z,11.00
2019-01-03T05:58:46.965Z,11.57
2019-01-03T06:01:20.078Z,11.17
2019-01-03T06:03:53.283Z,11.40
2019-01-03T06:06:26.967Z,11.13
2019-01-03T06:09:00.195Z,11.70
2019-01-03T06:11:33.263Z,11.90
2019-01-03T06:14:07.192Z,12.23
2019-01-03T06:16:41.237Z,12.20
2019-01-03T06:19:14.570Z,12.80
2019-01-03T06:21:48.536Z,11.70
2019-01-03T06:24:22.378Z,11.83
2019-01-03T06:26:57.210Z,11.37
2019-01-03T06:29:31.073Z,11.65
2019-01-03T06:32:04.834Z,11.23
2019-01-03T06:34:38.691Z,11.10
2019-01-03T06:37:12.502Z,11.25
2019-01-03T06:39:46.407Z,12.50
2019-01-03T06:42:20.121Z,12.23
2019-01-03T06:44:53.366Z,12.20
2019-01-03T06:47:26.263Z,12.23
2019-01-03T06:49:59.307Z,11.87
2019-01-03T06:52:51.771Z,13.60
2019-01-03T06:55:24.882Z,12.00
2019-01-03T06:57:57.771Z,12.28
2019-01-03T07:00:31.038Z,13.47
2019-01-03T07:03:04.173Z,11.77
2019-01-03T07:05:37.142Z,12.77
2019-01-03T07:08:10.502Z,12.33
2019-01-03T07:10:43.990Z,13.00
2019-01-03T07:13:17.598Z,12.95
2019-01-03T07:15:50.669Z,13.50
2019-01-03T07:18:24.183Z,13.10
2019-01-03T07:20:57.215Z,13.23
2019-01-03T07:23:31.218Z,12.93
2019-01-03T07:26:04.578Z,13.22
2019-01-03T07:28:37.756Z,14.03
2019-01-03T07:31:30.300Z,12.80
2019-01-03T07:34:05.679Z,13.80
2019-01-03T07:36:41.071Z,12.90
2019-01-03T07:39:14.314Z,13.87
2019-01-03T07:41:47.428Z,14.07
2019-01-03T07:44:20.414Z,13.32
2019-01-03T07:46:53.276Z,13.77
2019-01-03T07:49:26.394Z,13.53
2019-01-03T07:51:59.494Z,13.33
2019-01-03T07:54:34.281Z,13.97
2019-01-03T07:57:07.765Z,14.23
2019-01-03T07:59:41.847Z,14.10
2019-01-03T08:02:15.054Z,14.53
2019-01-03T08:04:48.434Z,14.17
2019-01-03T08:07:21.750Z,14.33
2019-01-03T08:10:09.091Z,14.83
2019-01-03T08:12:49.031Z,14.73
2019-01-03T08:15:33.900Z,14.33
2019-01-03T08:18:06.946Z,15.30
2019-01-03T08:23:51.521Z,15.93
2019-01-03T08:26:53.184Z,14.93
2019-01-03T08:29:43.987Z,15.50
2019-01-03T08:32:20.815Z,15.53
2019-01-03T08:35:19.541Z,14.67
2019-01-03T08:40:59.306Z,14.83
2019-01-03T08:43:32.416Z,14.83
2019-01-03T08:46:05.866Z,14.63
2019-01-03T08:48:39.562Z,14.37
2019-01-03T08:51:12.563Z,14.80
2019-01-03T08:53:46.629Z,14.33
2019-01-03T08:56:19.808Z,15.07
2019-01-03T08:58:55.556Z,14.27
2019-01-03T09:01:37.571Z,14.60
2019-01-03T09:04:18.544Z,14.90
2019-01-03T09:07:03.915Z,15.40
2019-01-03T09:09:44.194Z,14.97
2019-01-03T09:15:43.718Z,16.40
2019-01-03T09:18:25.552Z,16.30
2019-01-03T09:20:58.820Z,17.60
2019-01-03T09:23:32.117Z,17.53
2019-01-03T09:26:05.782Z,18.23
2019-01-03T09:28:39.580Z,17.53
2019-01-03T09:31:12.854Z,17.23
2019-01-03T09:33:45.833Z,17.97
2019-01-03T09:36:18.783Z,17.83
2019-01-03T09:38:51.901Z,18.73
2019-01-03T09:41:24.946Z,17.53
2019-01-03T09:43:58.005Z,17.57
2019-01-03T09:46:31.190Z,17.50
2019-01-03T09:49:04.956Z,19.50
2019-01-03T09:51:38.129Z,17.97
2019-01-03T09:54:11.409Z,16.93
2019-01-03T09:56:44.572Z,18.20
2019-01-03T09:59:17.812Z,17.17
2019-01-03T10:01:50.704Z,17.75
2019-01-03T10:04:23.889Z,19.97
2019-01-03T10:06:57.220Z,17.60
2019-01-03T10:09:30.291Z,25.23
2019-01-03T10:12:03.323Z,26.47
2019-01-03T10:14:39.611Z,26.90
2019-01-03T10:17:13.340Z,28.00
2019-01-03T10:19:46.464Z,28.85
2019-01-03T10:22:19.119Z,30.63
2019-01-03T10:24:52.112Z,30.02
2019-01-03T10:27:25.269Z,28.40
2019-01-03T10:29:58.454Z,30.17
2019-01-03T10:32:31.548Z,29.87
2019-01-03T10:35:04.778Z,31.80
2019-01-03T10:37:38.035Z,31.87
2019-01-03T10:40:26.130Z,32.57
2019-01-03T10:42:59.920Z,31.83
2019-01-03T10:45:32.941Z,31.50
2019-01-03T10:48:06.253Z,31.80
2019-01-03T10:50:39.512Z,31.77
2019-01-03T10:53:13.586Z,31.85
2019-01-03T10:55:47.028Z,32.10
2019-01-03T10:58:21.147Z,31.63
2019-01-03T11:00:55.168Z,31.33
2019-01-03T11:03:29.669Z,33.67
2019-01-03T11:06:02.670Z,32.90
2019-01-03T11:08:36.296Z,32.03
2019-01-03T11:11:10.770Z,31.67
2019-01-03T11:13:44.594Z,31.00
2019-01-03T11:16:19.867Z,31.80
2019-01-03T11:18:54.481Z,31.30
2019-01-03T11:21:31.279Z,30.03
2019-01-03T11:24:04.494Z,30.77
2019-01-03T11:26:38.738Z,30.70
2019-01-03T11:29:13.157Z,30.03
2019-01-03T11:31:46.157Z,30.20
2019-01-03T11:34:19.098Z,29.27
2019-01-03T11:36:52.128Z,29.10
2019-01-03T11:39:25.293Z,29.67
2019-01-03T11:41:58.427Z,28.53
2019-01-03T11:44:32.494Z,28.43
2019-01-03T11:47:05.695Z,29.17
2019-01-03T11:49:38.903Z,27.50
2019-01-03T11:52:12.036Z,29.30
2019-01-03T11:54:45.131Z,28.83
2019-01-03T11:57:18.321Z,27.20
2019-01-03T11:59:51.754Z,28.75
2019-01-03T12:02:25.663Z,27.90
2019-01-03T12:04:59.089Z,27.47
2019-01-03T12:07:33.155Z,27.70
2019-01-03T12:10:06.449Z,26.85
2019-01-03T12:12:39.867Z,26.62
2019-01-03T12:15:13.389Z,28.07
2019-01-03T12:17:46.875Z,26.02
2019-01-03T12:20:20.329Z,26.80
2019-01-03T12:22:53.940Z,28.00
2019-01-03T12:25:30.096Z,26.47
2019-01-03T12:28:05.036Z,26.90
2019-01-03T12:30:38.953Z,26.30
2019-01-03T12:33:18.885Z,25.53
2019-01-03T12:36:10.308Z,24.83
2019-01-03T12:38:43.660Z,26.00
2019-01-03T12:41:28.058Z,26.25
2019-01-03T12:44:07.708Z,25.00
2019-01-03T12:50:05.343Z,24.13
2019-01-03T12:52:53.378Z,24.10
2019-01-03T12:55:31.627Z,23.23
2019-01-03T12:58:30.405Z,24.17
2019-01-03T13:04:23.337Z,23.73
2019-01-03T13:07:07.595Z,24.53
2019-01-03T13:09:41.733Z,22.80
2019-01-03T13:12:15.238Z,23.83
2019-01-03T13:14:53.450Z,24.00
2019-01-03T13:17:27.284Z,23.27
2019-01-03T13:20:01.291Z,23.30
2019-01-03T13:22:35.587Z,24.10
2019-01-03T13:25:09.414Z,23.67
2019-01-03T13:27:42.766Z,25.37
2019-01-03T13:30:16.126Z,23.53
2019-01-03T13:32:49.954Z,24.17
2019-01-03T13:35:23.687Z,24.07
2019-01-03T13:37:56.703Z,22.93
2019-01-03T13:40:30.722Z,23.47
2019-01-03T13:43:03.953Z,24.07
2019-01-03T13:45:37.291Z,24.63
2019-01-03T13:48:10.405Z,25.20
2019-01-03T13:50:43.635Z,25.60
2019-01-03T13:53:17.259Z,25.97
2019-01-03T13:55:50.923Z,25.10
2019-01-03T13:58:24.059Z,26.47
2019-01-03T14:00:57.575Z,24.53
2019-01-03T14:03:30.579Z,26.30
2019-01-03T14:06:03.628Z,25.77
2019-01-03T14:08:36.664Z,25.73
2019-01-03T14:11:10.243Z,25.87
2019-01-03T14:13:44.330Z,26.07
2019-01-03T14:16:18.193Z,26.00
2019-01-03T14:18:52.348Z,26.23
2019-01-03T14:21:25.789Z,28.20
2019-01-03T14:24:02.285Z,27.83
2019-01-03T14:26:35.746Z,28.20
2019-01-03T14:29:09.426Z,28.93
2019-01-03T14:31:44.020Z,29.83
2019-01-03T14:34:19.022Z,27.60
2019-01-03T14:36:52.915Z,28.57
2019-01-03T14:39:26.419Z,29.00
2019-01-03T14:41:59.705Z,28.53
2019-01-03T14:44:32.975Z,29.40
2019-01-03T14:47:05.945Z,28.80
2019-01-03T14:49:39.898Z,30.20
2019-01-03T14:52:13.126Z,30.07
2019-01-03T14:54:47.908Z,30.53
2019-01-03T14:57:20.746Z,29.53
2019-01-03T14:59:57.513Z,29.63
2019-01-03T15:02:30.783Z,30.97
2019-01-03T15:05:03.801Z,30.13
2019-01-03T15:07:36.785Z,29.17
2019-01-03T15:10:10.682Z,29.37
2019-01-03T15:12:43.652Z,29.47
2019-01-03T15:15:16.657Z,30.27
2019-01-03T15:17:49.419Z,30.57
2019-01-03T15:20:22.376Z,30.87
2019-01-03T15:22:55.423Z,30.43
2019-01-03T15:25:28.317Z,30.75
2019-01-03T15:28:01.390Z,37.50
2019-01-03T15:30:34.368Z,34.70
2019-01-03T15:33:07.305Z,44.00
2019-01-03T15:35:40.345Z,44.90
2019-01-03T15:38:13.463Z,46.53
2019-01-03T15:40:46.499Z,46.63
2019-01-03T15:43:19.691Z,49.10
2019-01-03T15:45:52.743Z,48.53
2019-01-03T15:48:25.759Z,49.73
2019-01-03T15:50:58.807Z,51.30
2019-01-03T15:53:31.831Z,53.30
2019-01-03T15:56:06.059Z,44.30
2019-01-03T15:58:39.512Z,53.03
2019-01-03T16:01:12.230Z,52.13
2019-01-03T16:03:46.776Z,51.05
2019-01-03T16:06:20.330Z,54.47
2019-01-03T16:08:53.325Z,55.63
2019-01-03T16:11:26.416Z,55.55
2019-01-03T16:13:59.600Z,56.53
2019-01-03T16:16:32.761Z,56.95
2019-01-03T16:19:05.988Z,59.27
2019-01-03T16:21:39.212Z,55.93
2019-01-03T16:24:12.347Z,57.53
2019-01-03T16:26:46.191Z,57.83
2019-01-03T16:29:19.449Z,57.43
2019-01-03T16:31:53.665Z,56.93
2019-01-03T16:34:26.779Z,56.23
2019-01-03T16:37:00.022Z,56.70
2019-01-03T16:39:33.445Z,57.03
2019-01-03T16:42:06.712Z,57.10
2019-01-03T16:44:40.629Z,57.80
2019-01-03T16:47:13.992Z,54.30
2019-01-03T16:49:47.944Z,54.40
2019-01-03T16:52:21.046Z,54.73
2019-01-03T16:54:54.234Z,53.80
2019-01-03T16:57:37.583Z,52.67
2019-01-03T17:00:12.634Z,52.20
2019-01-03T17:02:45.972Z,49.25
2019-01-03T17:05:19.323Z,49.43
2019-01-03T17:07:52.470Z,48.40
2019-01-03T17:10:26.879Z,47.85
2019-01-03T17:13:00.587Z,48.13
2019-01-03T17:15:33.691Z,45.85
2019-01-03T17:18:06.958Z,47.78
2019-01-03T17:20:49.395Z,49.03
2019-01-03T17:23:22.387Z,48.40
2019-01-03T17:25:55.556Z,46.53
2019-01-03T17:28:28.778Z,45.87
2019-01-03T17:31:03.102Z,48.07
2019-01-03T17:33:36.551Z,45.67
2019-01-03T17:36:09.875Z,45.90
2019-01-03T17:38:43.008Z,45.40
2019-01-03T17:41:17.477Z,45.17
2019-01-03T17:43:50.632Z,46.20
2019-01-03T17:46:24.959Z,44.57
2019-01-03T17:48:58.083Z,45.20
2019-01-03T17:51:33.127Z,45.30
2019-01-03T17:54:05.651Z,45.93
2019-01-03T17:56:38.817Z,44.93
2019-01-03T17:59:11.679Z,45.13
2019-01-03T18:01:44.565Z,44.60
2019-01-03T18:04:17.489Z,41.73
2019-01-03T18:07:09.140Z,43.60
2019-01-03T18:09:42.318Z,43.30
2019-01-03T18:12:15.567Z,45.03
2019-01-03T18:14:48.646Z,45.47
2019-01-03T18:17:21.776Z,46.10
2019-01-03T18:19:54.488Z,46.13
2019-01-03T18:22:27.458Z,44.73
2019-01-03T18:25:00.438Z,44.00
2019-01-03T18:27:33.541Z,47.70
2019-01-03T18:30:13.137Z,44.95
2019-01-03T18:32:47.471Z,44.83
2019-01-03T18:35:21.163Z,44.63
2019-01-03T18:37:54.623Z,44.33
2019-01-03T18:40:28.101Z,43.87
2019-01-03T18:43:01.258Z,44.03
2019-01-03T18:45:34.355Z,45.90
2019-01-03T18:48:07.393Z,44.60
2019-01-03T18:50:40.345Z,44.65
2019-01-03T18:53:13.514Z,44.60
2019-01-03T18:55:46.669Z,44.30
2019-01-03T18:58:20.171Z,44.15
2019-01-03T19:00:53.326Z,44.10
2019-01-03T19:03:26.323Z,42.90
2019-01-03T19:05:59.373Z,44.93
2019-01-03T19:08:32.678Z,43.80
2019-01-03T19:11:05.746Z,43.60
2019-01-03T19:13:39.238Z,41.15
2019-01-03T19:16:12.200Z,43.50
2019-01-03T19:18:45.295Z,43.43
2019-01-03T19:21:18.427Z,44.48
2019-01-03T19:23:55.495Z,43.60
2019-01-03T19:26:28.594Z,42.70
2019-01-03T19:29:01.535Z,42.00
2019-01-03T19:31:34.632Z,42.25
2019-01-03T19:34:07.634Z,42.58
2019-01-03T19:36:40.675Z,43.33
2019-01-03T19:39:13.742Z,42.87
2019-01-03T19:41:46.767Z,41.43
2019-01-03T19:44:19.976Z,41.93
2019-01-03T19:46:52.925Z,41.57
2019-01-03T19:49:25.969Z,43.63
2019-01-03T19:51:58.991Z,41.30
2019-01-03T19:54:32.027Z,41.05
2019-01-03T19:57:04.975Z,42.98
2019-01-03T19:59:38.393Z,40.03
2019-01-03T20:02:11.465Z,40.87
2019-01-03T20:04:44.372Z,40.63
2019-01-03T20:07:36.866Z,41.70
2019-01-03T20:10:12.379Z,38.83
2019-01-03T20:12:45.917Z,39.33
2019-01-03T20:15:18.939Z,40.55
2019-01-03T20:17:51.879Z,38.53
2019-01-03T20:20:24.918Z,40.07
2019-01-03T20:22:57.960Z,38.00
2019-01-03T20:25:30.973Z,39.93
2019-01-03T20:28:03.895Z,39.07
2019-01-03T20:30:37.523Z,39.23
2019-01-03T20:33:10.655Z,37.53
2019-01-03T20:35:43.627Z,38.27
2019-01-03T20:38:16.873Z,35.50
2019-01-03T20:41:07.137Z,35.67
2019-01-03T20:43:43.173Z,35.73
2019-01-03T20:46:15.099Z,36.00
2019-01-03T20:48:48.040Z,35.60
2019-01-03T20:51:27.123Z,34.87
2019-01-03T20:54:00.254Z,34.43
2019-01-03T20:56:33.393Z,35.03
2019-01-03T20:59:06.501Z,33.23
2019-01-03T21:01:39.435Z,34.80
2019-01-03T21:04:12.367Z,34.27
2019-01-03T21:06:45.565Z,33.30
2019-01-03T21:09:18.753Z,32.70
2019-01-03T21:11:51.743Z,31.27
2019-01-03T21:14:24.525Z,32.40
2019-01-03T21:16:57.405Z,30.70
2019-01-03T21:19:30.416Z,30.80
2019-01-03T21:22:03.449Z,29.37
2019-01-03T21:24:36.557Z,30.00
2019-01-03T21:27:09.566Z,30.10
2019-01-03T21:29:42.513Z,30.43
2019-01-03T21:32:15.698Z,29.67
2019-01-03T21:34:48.929Z,26.60
2019-01-03T21:37:21.854Z,27.93
2019-01-03T21:39:55.034Z,27.23
2019-01-03T21:42:28.126Z,25.73
2019-01-03T21:45:01.096Z,27.47
2019-01-03T21:47:34.089Z,26.53
2019-01-03T21:50:11.015Z,25.17
2019-01-03T21:52:43.583Z,24.80
2019-01-03T21:55:16.749Z,23.90
2019-01-03T21:57:51.249Z,24.67
2019-01-03T22:00:24.032Z,23.57
2019-01-03T22:02:57.013Z,23.03
2019-01-03T22:05:30.018Z,23.07
2019-01-03T22:08:11.796Z,22.40
2019-01-03T22:10:44.815Z,22.17
2019-01-03T22:13:18.044Z,23.40
2019-01-03T22:15:51.207Z,21.70
2019-01-03T22:18:24.158Z,21.50
2019-01-03T22:20:57.043Z,22.22
2019-01-03T22:23:30.042Z,21.43
2019-01-03T22:26:03.021Z,21.40
2019-01-03T22:28:35.916Z,21.30
2019-01-03T22:31:08.846Z,21.87
2019-01-03T22:33:41.931Z,22.03
2019-01-03T22:36:14.943Z,20.87
2019-01-03T22:38:47.869Z,20.82
2019-01-03T22:41:20.937Z,20.87
2019-01-03T22:43:54.048Z,20.12
2019-01-03T22:46:27.020Z,19.57
2019-01-03T22:49:00.201Z,19.30
2019-01-03T22:51:33.829Z,19.43
2019-01-03T22:54:06.712Z,19.80
2019-01-03T22:56:39.795Z,18.93
2019-01-03T22:59:12.799Z,17.97
2019-01-03T23:02:05.072Z,17.50
2019-01-03T23:04:38.086Z,18.70
2019-01-03T23:07:11.313Z,17.73
2019-01-03T23:09:44.370Z,15.33
2019-01-03T23:12:17.300Z,17.63
2019-01-03T23:14:50.385Z,16.93
2019-01-03T23:17:23.435Z,13.97
2019-01-03T23:19:56.408Z,16.23
2019-01-03T23:22:29.303Z,15.90
2019-01-03T23:25:02.212Z,15.50
2019-01-03T23:27:35.088Z,14.67
2019-01-03T23:30:09.981Z,14.70
2019-01-03T23:32:43.325Z,15.63
2019-01-03T23:35:16.577Z,13.83
2019-01-03T23:37:49.547Z,13.90
2019-01-03T23:40:22.636Z,14.27
2019-01-03T23:42:55.501Z,14.27
2019-01-03T23:45:52.077Z,13.07
2019-01-03T23:48:25.709Z,13.53
2019-01-03T23:50:58.938Z,13.57
2019-01-03T23:53:32.306Z,14.73
2019-01-03T23:56:05.299Z,13.37
2019-01-03T23:58:38.318Z,13.83
